createdAt,value
2022-09-10T00:00:16.165Z,16.04
2022-09-10T00:01:16.175Z,16.01
2022-09-10T00:02:16.231Z,16.05
2022-09-10T00:03:16.140Z,16.16
2022-09-10T00:04:16.122Z,16.04
2022-09-10T00:05:16.129Z,16.02
2022-09-10T00:06:16.121Z,15.94
2022-09-10T00:07:16.138Z,16.00
2022-09-10T00:08:16.115Z,15.95
2022-09-10T00:09:16.091Z,16.01
2022-09-10T00:10:16.076Z,15.98
2022-09-10T00:11:16.082Z,15.95
2022-09-10T00:12:16.063Z,15.98
2022-09-10T00:13:16.084Z,15.94
2022-09-10T00:14:16.060Z,16.00
2022-09-10T00:15:16.046Z,16.00
2022-09-10T00:16:16.055Z,16.05
2022-09-10T00:17:16.050Z,15.92
2022-09-10T00:18:16.018Z,15.95
2022-09-10T00:19:16.012Z,15.88
2022-09-10T00:20:15.996Z,15.95
2022-09-10T00:21:15.994Z,15.92
2022-09-10T00:22:16.009Z,15.92
2022-09-10T00:23:15.973Z,15.84
2022-09-10T00:24:15.953Z,15.88
2022-09-10T00:25:15.949Z,15.88
2022-09-10T00:26:15.943Z,15.86
2022-09-10T00:27:15.952Z,15.84
2022-09-10T00:28:15.959Z,15.82
2022-09-10T00:29:15.932Z,15.83
2022-09-10T00:30:15.909Z,15.73
2022-09-10T00:31:15.922Z,15.86
2022-09-10T00:32:15.902Z,15.82
2022-09-10T00:33:15.894Z,15.79
2022-09-10T00:34:15.894Z,15.83
2022-09-10T00:35:15.876Z,15.72
2022-09-10T00:36:15.870Z,15.68
2022-09-10T00:37:15.857Z,15.67
2022-09-10T00:38:15.838Z,15.75
2022-09-10T00:39:15.862Z,15.72
2022-09-10T00:40:15.828Z,15.76
2022-09-10T00:41:15.813Z,15.58
2022-09-10T00:42:15.803Z,15.62
2022-09-10T00:43:15.798Z,15.67
2022-09-10T00:44:15.808Z,15.68
2022-09-10T00:45:15.787Z,15.64
2022-09-10T00:46:15.773Z,15.76
2022-09-10T00:47:15.788Z,15.72
2022-09-10T00:48:15.764Z,15.61
2022-09-10T00:49:15.750Z,15.70
2022-09-10T00:50:15.744Z,15.76
2022-09-10T00:51:15.735Z,15.59
2022-09-10T00:52:15.720Z,15.68
2022-09-10T00:53:15.743Z,15.68
2022-09-10T00:54:15.723Z,15.67
2022-09-10T00:55:15.702Z,15.64
2022-09-10T00:56:15.687Z,15.65
2022-09-10T00:57:15.677Z,15.61
2022-09-10T00:58:15.678Z,15.68
2022-09-10T00:59:15.684Z,15.62
2022-09-10T01:00:15.670Z,15.62
2022-09-10T01:01:15.716Z,15.65
2022-09-10T01:02:15.663Z,15.65
2022-09-10T01:03:15.631Z,15.54
2022-09-10T01:04:15.653Z,15.61
2022-09-10T01:05:15.633Z,15.52
2022-09-10T01:06:15.607Z,15.52
2022-09-10T01:07:15.619Z,15.46
2022-09-10T01:08:15.598Z,15.37
2022-09-10T01:09:15.667Z,15.43
2022-09-10T01:10:15.582Z,15.51
2022-09-10T01:11:15.573Z,15.52
2022-09-10T01:12:15.560Z,15.47
2022-09-10T01:13:15.559Z,15.36
2022-09-10T01:14:15.553Z,15.42
2022-09-10T01:15:15.566Z,15.54
2022-09-10T01:16:15.547Z,15.44
2022-09-10T01:17:15.522Z,15.51
2022-09-10T01:18:15.537Z,15.47
2022-09-10T01:19:15.510Z,15.40
2022-09-10T01:20:15.506Z,15.39
2022-09-10T01:21:15.501Z,15.47
2022-09-10T01:22:15.475Z,15.55
2022-09-10T01:23:17.743Z,15.58
2022-09-10T01:24:15.463Z,15.54
2022-09-10T01:25:15.454Z,15.49
2022-09-10T01:26:15.450Z,15.37
2022-09-10T01:27:15.444Z,15.39
2022-09-10T01:28:15.430Z,15.43
2022-09-10T01:29:15.443Z,15.43
2022-09-10T01:30:15.429Z,15.49
2022-09-10T01:31:15.444Z,15.46
2022-09-10T01:32:15.436Z,15.49
2022-09-10T01:33:15.394Z,15.39
2022-09-10T01:34:15.378Z,15.40
2022-09-10T01:35:15.389Z,15.36
2022-09-10T01:36:15.358Z,15.31
2022-09-10T01:37:15.349Z,15.39
2022-09-10T01:38:15.354Z,15.33
2022-09-10T01:39:15.325Z,15.33
2022-09-10T01:40:15.324Z,15.31
2022-09-10T01:41:15.337Z,15.35
2022-09-10T01:42:15.314Z,15.29
2022-09-10T01:43:15.306Z,15.29
2022-09-10T01:44:15.283Z,15.35
2022-09-10T01:45:15.303Z,15.33
2022-09-10T01:46:15.298Z,15.28
2022-09-10T01:47:15.266Z,15.39
2022-09-10T01:48:15.254Z,15.42
2022-09-10T01:49:15.249Z,15.35
2022-09-10T01:50:15.236Z,15.43
2022-09-10T01:51:15.222Z,15.42
2022-09-10T01:52:15.238Z,15.39
2022-09-10T01:53:15.212Z,15.42
2022-09-10T01:54:15.208Z,15.33
2022-09-10T01:55:15.199Z,15.35
2022-09-10T01:56:15.187Z,15.37
2022-09-10T01:57:15.203Z,15.31
2022-09-10T01:58:15.173Z,15.39
2022-09-10T01:59:15.171Z,15.40
2022-09-10T02:00:15.151Z,15.40
2022-09-10T02:01:15.190Z,15.37
2022-09-10T02:02:15.162Z,15.39
2022-09-10T02:03:15.148Z,15.27
2022-09-10T02:04:15.122Z,15.33
2022-09-10T02:05:15.120Z,15.39
2022-09-10T02:06:15.111Z,15.33
2022-09-10T02:07:15.094Z,15.37
2022-09-10T02:08:15.097Z,15.42
2022-09-10T02:09:15.094Z,15.44
2022-09-10T02:10:15.065Z,15.37
2022-09-10T02:11:15.069Z,15.44
2022-09-10T02:12:15.059Z,15.40
2022-09-10T02:13:15.047Z,15.36
2022-09-10T02:14:15.046Z,15.42
2022-09-10T02:15:15.028Z,15.46
2022-09-10T02:16:15.042Z,15.51
2022-09-10T02:17:15.014Z,15.46
2022-09-10T02:18:14.997Z,15.49
2022-09-10T02:19:14.998Z,15.43
2022-09-10T02:20:15.003Z,15.40
2022-09-10T02:21:14.978Z,15.40
2022-09-10T02:22:14.969Z,15.43
2022-09-10T02:23:14.985Z,15.44
2022-09-10T02:24:14.955Z,15.27
2022-09-10T02:25:14.951Z,15.35
2022-09-10T02:26:14.935Z,15.28
2022-09-10T02:27:14.935Z,15.28
2022-09-10T02:28:14.925Z,15.33
2022-09-10T02:29:14.934Z,15.29
2022-09-10T02:30:14.921Z,15.42
2022-09-10T02:31:14.937Z,15.57
2022-09-10T02:32:14.884Z,15.39
2022-09-10T02:33:14.900Z,15.40
2022-09-10T02:34:14.870Z,15.44
2022-09-10T02:35:14.856Z,15.35
2022-09-10T02:36:14.848Z,15.36
2022-09-10T02:37:14.841Z,15.35
2022-09-10T02:38:14.855Z,15.42
2022-09-10T02:39:14.830Z,15.55
2022-09-10T02:40:14.812Z,15.51
2022-09-10T02:41:14.817Z,15.62
2022-09-10T02:42:14.797Z,15.65
2022-09-10T02:43:14.817Z,15.61
2022-09-10T02:44:14.784Z,15.59
2022-09-10T02:45:14.774Z,15.64
2022-09-10T02:46:14.786Z,15.61
2022-09-10T02:47:14.782Z,15.57
2022-09-10T02:48:14.742Z,15.65
2022-09-10T02:49:14.740Z,15.64
2022-09-10T02:50:14.727Z,15.51
2022-09-10T02:51:14.728Z,15.65
2022-09-10T02:52:14.733Z,15.51
2022-09-10T02:53:14.708Z,15.55
2022-09-10T02:54:14.722Z,15.44
2022-09-10T02:55:14.681Z,15.37
2022-09-10T02:56:14.677Z,15.39
2022-09-10T02:57:14.676Z,15.33
2022-09-10T02:58:14.660Z,15.24
2022-09-10T02:59:14.654Z,15.22
2022-09-10T03:00:14.669Z,15.28
2022-09-10T03:01:14.751Z,15.21
2022-09-10T03:02:14.711Z,15.27
2022-09-10T03:03:14.625Z,15.25
2022-09-10T03:04:14.608Z,15.33
2022-09-10T03:05:14.721Z,15.37
2022-09-10T03:06:14.590Z,15.31
2022-09-10T03:07:14.588Z,15.33
2022-09-10T03:08:14.593Z,15.29
2022-09-10T03:09:14.575Z,15.37
2022-09-10T03:10:14.554Z,15.44
2022-09-10T03:11:14.577Z,15.29
2022-09-10T03:12:14.540Z,15.27
2022-09-10T03:13:14.532Z,15.22
2022-09-10T03:14:14.523Z,15.14
2022-09-10T03:15:14.511Z,15.06
2022-09-10T03:16:14.528Z,14.96
2022-09-10T03:17:14.534Z,15.00
2022-09-10T03:18:14.495Z,14.97
2022-09-10T03:19:14.488Z,14.99
2022-09-10T03:20:14.475Z,14.94
2022-09-10T03:21:14.507Z,14.97
2022-09-10T03:22:14.476Z,14.84
2022-09-10T03:23:14.453Z,14.81
2022-09-10T03:24:15.505Z,14.78
2022-09-10T03:25:14.437Z,14.69
2022-09-10T03:26:14.424Z,14.60
2022-09-10T03:27:14.450Z,14.55
2022-09-10T03:28:14.402Z,14.69
2022-09-10T03:29:14.427Z,14.62
2022-09-10T03:30:14.389Z,14.63
2022-09-10T03:31:14.433Z,14.53
2022-09-10T03:32:14.370Z,14.45
2022-09-10T03:33:14.370Z,14.53
2022-09-10T03:34:14.366Z,14.50
2022-09-10T03:35:14.377Z,14.40
2022-09-10T03:36:14.342Z,14.40
2022-09-10T03:37:14.335Z,14.35
2022-09-10T03:38:14.326Z,14.36
2022-09-10T03:39:14.351Z,14.35
2022-09-10T03:40:14.362Z,14.32
2022-09-10T03:41:14.309Z,14.35
2022-09-10T03:42:14.300Z,14.33
2022-09-10T03:43:14.287Z,14.35
2022-09-10T03:44:14.275Z,14.23
2022-09-10T03:45:14.287Z,14.29
2022-09-10T03:46:14.258Z,14.26
2022-09-10T03:47:14.256Z,14.15
2022-09-10T03:48:14.253Z,14.15
2022-09-10T03:49:14.242Z,14.20
2022-09-10T03:50:14.227Z,14.25
2022-09-10T03:51:14.247Z,14.29
2022-09-10T03:52:14.217Z,14.23
2022-09-10T03:53:14.209Z,14.30
2022-09-10T03:54:14.195Z,14.41
2022-09-10T03:55:14.187Z,14.45
2022-09-10T03:56:14.175Z,14.48
2022-09-10T03:57:14.188Z,14.48
2022-09-10T03:58:14.162Z,14.51
2022-09-10T03:59:14.157Z,14.54
2022-09-10T04:00:14.154Z,14.65
2022-09-10T04:01:14.209Z,14.63
2022-09-10T04:02:14.158Z,14.73
2022-09-10T04:03:14.121Z,14.70
2022-09-10T04:04:14.158Z,14.69
2022-09-10T04:05:14.098Z,14.89
2022-09-10T04:06:14.093Z,14.84
2022-09-10T04:07:14.086Z,14.72
2022-09-10T04:08:14.074Z,14.72
2022-09-10T04:09:14.066Z,14.69
2022-09-10T04:10:14.093Z,14.66
2022-09-10T04:11:14.052Z,14.68
2022-09-10T04:12:14.063Z,14.54
2022-09-10T04:13:14.031Z,14.48
2022-09-10T04:14:14.024Z,14.45
2022-09-10T04:15:14.015Z,14.40
2022-09-10T04:16:14.036Z,14.37
2022-09-10T04:17:13.996Z,14.41
2022-09-10T04:18:13.999Z,14.30
2022-09-10T04:19:13.977Z,14.43
2022-09-10T04:20:13.965Z,14.28
2022-09-10T04:21:13.959Z,14.30
2022-09-10T04:22:13.959Z,14.29
2022-09-10T04:23:13.990Z,14.18
2022-09-10T04:24:13.933Z,14.23
2022-09-10T04:25:13.933Z,14.17
2022-09-10T04:26:13.917Z,14.17
2022-09-10T04:27:13.909Z,14.17
2022-09-10T04:28:13.904Z,14.12
2022-09-10T04:29:13.928Z,14.22
2022-09-10T04:30:13.889Z,14.15
2022-09-10T04:31:13.880Z,14.17
2022-09-10T04:32:13.869Z,14.26
2022-09-10T04:33:13.862Z,14.33
2022-09-10T04:34:13.853Z,14.30
2022-09-10T04:35:13.903Z,14.20
2022-09-10T04:36:13.845Z,14.25
2022-09-10T04:37:17.419Z,14.28
2022-09-10T04:38:13.818Z,14.26
2022-09-10T04:39:13.818Z,14.22
2022-09-10T04:40:13.842Z,14.26
2022-09-10T04:41:13.815Z,14.25
2022-09-10T04:42:13.789Z,14.29
2022-09-10T04:43:13.799Z,14.35
2022-09-10T04:44:13.770Z,14.35
2022-09-10T04:45:13.762Z,14.40
2022-09-10T04:46:13.753Z,14.32
2022-09-10T04:47:13.745Z,14.35
2022-09-10T04:48:13.738Z,14.29
2022-09-10T04:49:13.760Z,14.30
2022-09-10T04:50:13.716Z,14.44
2022-09-10T04:51:16.630Z,14.44
2022-09-10T04:52:13.707Z,14.43
2022-09-10T04:53:13.690Z,14.43
2022-09-10T04:54:13.684Z,14.33
2022-09-10T04:55:13.714Z,14.47
2022-09-10T04:56:13.675Z,14.40
2022-09-10T04:57:13.659Z,14.50
2022-09-10T04:58:13.655Z,14.47
2022-09-10T04:59:13.649Z,14.53
2022-09-10T05:00:13.636Z,14.53
2022-09-10T05:01:13.709Z,14.58
2022-09-10T05:02:13.651Z,14.60
2022-09-10T05:03:13.608Z,14.66
2022-09-10T05:04:13.593Z,14.68
2022-09-10T05:05:13.588Z,14.66
2022-09-10T05:06:13.624Z,14.79
2022-09-10T05:07:13.594Z,14.72
2022-09-10T05:08:13.588Z,14.72
2022-09-10T05:09:13.561Z,14.78
2022-09-10T05:10:13.570Z,14.85
2022-09-10T05:11:13.538Z,14.82
2022-09-10T05:12:13.566Z,14.82
2022-09-10T05:13:13.559Z,14.81
2022-09-10T05:14:13.515Z,14.92
2022-09-10T05:15:13.513Z,15.00
2022-09-10T05:16:13.555Z,15.07
2022-09-10T05:17:13.499Z,15.00
2022-09-10T05:18:13.500Z,15.17
2022-09-10T05:19:13.475Z,15.07
2022-09-10T05:20:13.464Z,15.17
2022-09-10T05:21:13.487Z,15.31
2022-09-10T05:22:13.467Z,15.36
2022-09-10T05:23:13.444Z,15.37
2022-09-10T05:24:13.436Z,15.35
2022-09-10T05:25:13.425Z,15.33
2022-09-10T05:26:13.430Z,15.47
2022-09-10T05:27:13.404Z,15.35
2022-09-10T05:28:13.397Z,15.42
2022-09-10T05:29:13.393Z,15.43
2022-09-10T05:30:13.384Z,15.55
2022-09-10T05:31:13.413Z,15.52
2022-09-10T05:32:13.366Z,15.49
2022-09-10T05:33:13.354Z,15.51
2022-09-10T05:34:13.370Z,15.57
2022-09-10T05:35:13.345Z,15.58
2022-09-10T05:36:13.330Z,15.59
2022-09-10T05:37:13.323Z,15.54
2022-09-10T05:38:13.327Z,15.65
2022-09-10T05:39:13.309Z,15.55
2022-09-10T05:40:13.316Z,15.49
2022-09-10T05:41:13.293Z,15.46
2022-09-10T05:42:13.284Z,15.57
2022-09-10T05:43:13.281Z,15.52
2022-09-10T05:44:13.268Z,15.40
2022-09-10T05:45:13.259Z,15.47
2022-09-10T05:46:13.333Z,15.51
2022-09-10T05:47:13.240Z,15.49
2022-09-10T05:48:13.223Z,15.44
2022-09-10T05:49:13.217Z,15.42
2022-09-10T05:50:13.233Z,15.47
2022-09-10T05:51:13.199Z,15.49
2022-09-10T05:52:13.215Z,15.52
2022-09-10T05:53:13.194Z,15.52
2022-09-10T05:54:13.233Z,15.59
2022-09-10T05:55:13.178Z,15.46
2022-09-10T05:56:13.165Z,15.55
2022-09-10T05:57:13.160Z,15.57
2022-09-10T05:58:13.311Z,15.46
2022-09-10T05:59:13.147Z,15.43
2022-09-10T06:00:13.127Z,15.54
2022-09-10T06:01:13.118Z,15.51
2022-09-10T06:02:13.183Z,15.47
2022-09-10T06:03:13.149Z,15.47
2022-09-10T06:04:13.117Z,15.46
2022-09-10T06:05:13.096Z,15.61
2022-09-10T06:06:13.096Z,15.65
2022-09-10T06:07:13.083Z,15.61
2022-09-10T06:08:13.075Z,15.70
2022-09-10T06:09:13.063Z,15.59
2022-09-10T06:10:13.070Z,15.64
2022-09-10T06:11:13.048Z,15.68
2022-09-10T06:12:13.041Z,15.68
2022-09-10T06:13:13.034Z,15.59
2022-09-10T06:14:13.016Z,15.57
2022-09-10T06:15:13.033Z,15.64
2022-09-10T06:16:13.035Z,15.55
2022-09-10T06:17:12.998Z,15.54
2022-09-10T06:18:12.998Z,15.64
2022-09-10T06:19:12.982Z,15.65
2022-09-10T06:20:12.993Z,15.75
2022-09-10T06:21:12.985Z,15.73
2022-09-10T06:22:12.952Z,15.73
2022-09-10T06:23:12.944Z,15.76
2022-09-10T06:24:12.932Z,15.80
2022-09-10T06:25:12.942Z,15.76
2022-09-10T06:26:12.929Z,15.76
2022-09-10T06:27:12.911Z,15.82
2022-09-10T06:28:12.894Z,15.90
2022-09-10T06:29:12.899Z,15.82
2022-09-10T06:30:12.897Z,15.94
2022-09-10T06:31:12.936Z,15.86
2022-09-10T06:32:12.889Z,15.91
2022-09-10T06:33:12.860Z,15.88
2022-09-10T06:34:12.869Z,15.92
2022-09-10T06:35:12.846Z,15.95
2022-09-10T06:36:12.835Z,15.91
2022-09-10T06:37:12.829Z,15.91
2022-09-10T06:38:12.834Z,16.02
2022-09-10T06:39:12.836Z,16.01
2022-09-10T06:40:12.863Z,16.01
2022-09-10T06:41:12.807Z,16.09
2022-09-10T06:42:12.798Z,16.10
2022-09-10T06:43:12.819Z,16.13
2022-09-10T06:44:12.790Z,16.02
2022-09-10T06:45:12.755Z,16.01
2022-09-10T06:46:40.672Z,15.98
2022-09-10T06:48:06.496Z,15.92
2022-09-10T06:49:13.736Z,15.98
2022-09-10T06:50:12.784Z,15.98
2022-09-10T06:51:12.708Z,16.08
2022-09-10T06:52:12.706Z,16.15
2022-09-10T06:53:12.724Z,16.02
2022-09-10T06:54:12.677Z,16.08
2022-09-10T06:55:12.676Z,16.15
2022-09-10T06:56:12.659Z,16.15
2022-09-10T06:57:12.650Z,16.17
2022-09-10T06:58:12.651Z,16.10
2022-09-10T06:59:12.681Z,16.12
2022-09-10T07:00:12.631Z,16.10
2022-09-10T07:01:12.623Z,16.09
2022-09-10T07:02:12.678Z,16.09
2022-09-10T07:03:12.608Z,16.04
2022-09-10T07:04:12.612Z,16.09
2022-09-10T07:05:12.598Z,16.08
2022-09-10T07:06:12.613Z,16.15
2022-09-10T07:07:12.577Z,16.16
2022-09-10T07:08:12.585Z,16.20
2022-09-10T07:09:12.561Z,16.15
2022-09-10T07:10:12.556Z,16.16
2022-09-10T07:11:12.553Z,16.13
2022-09-10T07:12:12.536Z,16.24
2022-09-10T07:13:12.530Z,16.26
2022-09-10T07:14:12.535Z,16.21
2022-09-10T07:15:12.506Z,16.24
2022-09-10T07:16:12.523Z,16.21
2022-09-10T07:17:12.500Z,16.16
2022-09-10T07:18:12.515Z,16.20
2022-09-10T07:19:12.479Z,16.24
2022-09-10T07:20:12.464Z,16.31
2022-09-10T07:21:12.451Z,16.24
2022-09-10T07:22:12.444Z,16.41
2022-09-10T07:23:12.898Z,16.46
2022-09-10T07:24:12.455Z,16.39
2022-09-10T07:25:12.423Z,16.41
2022-09-10T07:26:12.444Z,16.49
2022-09-10T07:27:12.412Z,16.41
2022-09-10T07:28:12.396Z,16.39
2022-09-10T07:29:12.402Z,16.53
2022-09-10T07:30:12.397Z,16.61
2022-09-10T07:31:12.468Z,16.87
2022-09-10T07:32:13.658Z,17.04
2022-09-10T07:33:12.362Z,17.14
2022-09-10T07:34:12.341Z,17.20
2022-09-10T07:35:12.338Z,17.38
2022-09-10T07:36:12.383Z,17.44
2022-09-10T07:37:12.319Z,17.57
2022-09-10T07:38:12.326Z,17.72
2022-09-10T07:39:12.308Z,17.82
2022-09-10T07:40:12.338Z,17.87
2022-09-10T07:41:12.290Z,18.00
2022-09-10T07:42:12.305Z,17.95
2022-09-10T07:43:12.270Z,18.01
2022-09-10T07:44:12.255Z,18.07
2022-09-10T07:45:12.253Z,18.19
2022-09-10T07:46:12.282Z,18.04
2022-09-10T07:47:12.237Z,18.05
2022-09-10T07:48:12.256Z,18.07
2022-09-10T07:49:12.224Z,18.05
2022-09-10T07:50:12.215Z,18.08
2022-09-10T07:51:12.197Z,17.94
2022-09-10T07:52:12.195Z,17.86
2022-09-10T07:53:12.193Z,17.85
2022-09-10T07:54:12.215Z,17.94
2022-09-10T07:55:12.182Z,17.83
2022-09-10T07:56:12.188Z,17.78
2022-09-10T07:57:12.152Z,17.76
2022-09-10T07:58:12.151Z,17.78
2022-09-10T07:59:12.162Z,17.85
2022-09-10T08:00:12.134Z,17.83
2022-09-10T08:01:12.160Z,17.79
2022-09-10T08:02:12.166Z,17.92
2022-09-10T08:03:12.098Z,17.85
2022-09-10T08:04:12.121Z,17.82
2022-09-10T08:05:12.107Z,17.78
2022-09-10T08:06:12.080Z,17.80
2022-09-10T08:07:12.106Z,17.74
2022-09-10T08:08:12.073Z,17.79
2022-09-10T08:09:12.083Z,17.85
2022-09-10T08:10:12.071Z,17.98
2022-09-10T08:11:12.257Z,17.89
2022-09-10T08:12:12.033Z,17.80
2022-09-10T08:13:12.025Z,17.78
2022-09-10T08:14:12.049Z,17.65
2022-09-10T08:15:12.006Z,17.56
2022-09-10T08:16:12.041Z,17.63
2022-09-10T08:17:12.001Z,17.59
2022-09-10T08:18:11.975Z,17.44
2022-09-10T08:19:11.976Z,17.33
2022-09-10T08:20:11.987Z,17.41
2022-09-10T08:21:11.958Z,17.34
2022-09-10T08:22:13.686Z,17.27
2022-09-10T08:23:11.964Z,17.19
2022-09-10T08:24:11.926Z,17.20
2022-09-10T08:25:11.931Z,17.38
2022-09-10T08:26:11.907Z,17.19
2022-09-10T08:27:11.944Z,17.22
2022-09-10T08:28:11.900Z,17.24
2022-09-10T08:29:11.897Z,17.27
2022-09-10T08:30:11.892Z,17.27
2022-09-10T08:31:11.900Z,17.36
2022-09-10T08:32:11.881Z,17.31
2022-09-10T08:33:11.869Z,17.48
2022-09-10T08:34:11.869Z,17.41
2022-09-10T08:35:11.838Z,17.51
2022-09-10T08:36:11.832Z,17.45
2022-09-10T08:37:11.868Z,17.42
2022-09-10T08:38:11.802Z,17.56
2022-09-10T08:39:11.800Z,17.42
2022-09-10T08:40:11.934Z,17.38
2022-09-10T08:41:11.819Z,17.48
2022-09-10T08:42:11.797Z,17.48
2022-09-10T08:43:11.779Z,17.48
2022-09-10T08:44:11.751Z,17.46
2022-09-10T08:45:11.765Z,17.51
2022-09-10T08:46:11.741Z,17.54
2022-09-10T08:47:11.756Z,17.48
2022-09-10T08:48:11.727Z,17.51
2022-09-10T08:49:11.739Z,17.45
2022-09-10T08:50:11.728Z,17.34
2022-09-10T08:51:11.704Z,17.30
2022-09-10T08:52:11.800Z,17.15
2022-09-10T08:53:11.677Z,17.05
2022-09-10T08:54:11.668Z,17.09
2022-09-10T08:55:11.657Z,17.04
2022-09-10T08:56:11.652Z,17.08
2022-09-10T08:57:11.643Z,17.16
2022-09-10T08:58:11.848Z,17.12
2022-09-10T08:59:11.625Z,17.20
2022-09-10T09:00:11.611Z,17.20
2022-09-10T09:01:11.646Z,17.19
2022-09-10T09:02:16.572Z,17.24
2022-09-10T09:03:12.681Z,17.24
2022-09-10T09:04:11.591Z,17.30
2022-09-10T09:05:11.593Z,17.39
2022-09-10T09:06:11.583Z,17.36
2022-09-10T09:07:11.566Z,17.44
2022-09-10T09:08:11.553Z,17.44
2022-09-10T09:09:15.438Z,17.49
2022-09-10T09:10:11.535Z,17.48
2022-09-10T09:11:11.531Z,17.64
2022-09-10T09:12:11.541Z,17.63
2022-09-10T09:13:11.520Z,17.49
2022-09-10T09:14:11.527Z,17.49
2022-09-10T09:15:11.510Z,17.52
2022-09-10T09:16:11.533Z,17.52
2022-09-10T09:17:11.484Z,17.45
2022-09-10T09:18:11.479Z,17.34
2022-09-10T09:19:11.499Z,17.38
2022-09-10T09:20:18.481Z,17.49
2022-09-10T09:21:11.453Z,17.59
2022-09-10T09:22:11.461Z,17.74
2022-09-10T09:23:11.449Z,17.79
2022-09-10T09:24:13.829Z,17.86
2022-09-10T09:25:11.423Z,18.11
2022-09-10T09:26:11.401Z,18.28
2022-09-10T09:27:11.407Z,18.31
2022-09-10T09:28:11.454Z,18.43
2022-09-10T09:29:11.396Z,18.70
2022-09-10T09:30:11.370Z,18.77
2022-09-10T09:31:11.406Z,18.89
2022-09-10T09:32:11.356Z,18.99
2022-09-10T09:33:11.367Z,19.07
2022-09-10T09:34:11.356Z,19.21
2022-09-10T09:35:11.340Z,19.21
2022-09-10T09:36:11.317Z,19.21
2022-09-10T09:37:11.323Z,19.33
2022-09-10T09:38:11.308Z,19.45
2022-09-10T09:39:11.324Z,19.56
2022-09-10T09:40:11.348Z,19.49
2022-09-10T09:41:11.290Z,19.41
2022-09-10T09:42:11.280Z,19.34
2022-09-10T09:43:11.281Z,19.30
2022-09-10T09:44:11.258Z,19.11
2022-09-10T09:45:11.272Z,19.15
2022-09-10T09:46:11.327Z,18.98
2022-09-10T09:47:11.268Z,18.95
2022-09-10T09:48:11.240Z,18.96
2022-09-10T09:49:11.225Z,18.96
2022-09-10T09:50:11.242Z,18.96
2022-09-10T09:51:11.219Z,18.98
2022-09-10T09:52:11.194Z,18.90
2022-09-10T09:53:11.206Z,18.84
2022-09-10T09:54:46.437Z,18.83
2022-09-10T09:55:17.095Z,18.93
2022-09-10T09:56:11.189Z,18.96
2022-09-10T09:57:11.151Z,18.96
2022-09-10T09:58:11.135Z,19.11
2022-09-10T09:59:14.913Z,19.04
2022-09-10T10:00:11.127Z,19.00
2022-09-10T10:01:11.152Z,18.96
2022-09-10T10:02:11.169Z,19.12
2022-09-10T10:03:11.109Z,19.22
2022-09-10T10:04:11.087Z,19.54
2022-09-10T10:05:11.115Z,19.95
2022-09-10T10:06:11.071Z,20.19
2022-09-10T10:07:11.089Z,20.24
2022-09-10T10:08:11.075Z,20.10
2022-09-10T10:09:11.058Z,20.07
2022-09-10T10:10:11.039Z,20.00
2022-09-10T10:11:11.041Z,19.95
2022-09-10T10:12:11.049Z,20.09
2022-09-10T10:13:11.030Z,20.47
2022-09-10T10:14:11.014Z,20.75
2022-09-10T10:15:11.030Z,20.96
2022-09-10T10:16:11.011Z,20.96
2022-09-10T10:17:10.989Z,20.80
2022-09-10T10:18:10.986Z,20.70
2022-09-10T10:19:10.973Z,20.59
2022-09-10T10:20:10.970Z,20.44
2022-09-10T10:21:10.988Z,20.41
2022-09-10T10:22:10.961Z,20.50
2022-09-10T10:23:10.948Z,20.50
2022-09-10T10:24:10.929Z,20.44
2022-09-10T10:25:10.923Z,20.50
2022-09-10T10:26:10.918Z,20.58
2022-09-10T10:27:10.931Z,20.75
2022-09-10T10:28:10.898Z,20.77
2022-09-10T10:29:10.893Z,20.69
2022-09-10T10:30:10.907Z,20.82
2022-09-10T10:31:10.998Z,20.99
2022-09-10T10:32:10.871Z,21.09
2022-09-10T10:33:10.863Z,20.99
2022-09-10T10:34:10.855Z,20.99
2022-09-10T10:35:10.846Z,21.15
2022-09-10T10:36:10.831Z,21.17
2022-09-10T10:37:10.868Z,21.30
2022-09-10T10:38:10.817Z,21.27
2022-09-10T10:39:10.809Z,21.25
2022-09-10T10:40:10.863Z,21.20
2022-09-10T10:41:10.793Z,21.25
2022-09-10T10:42:10.787Z,21.18
2022-09-10T10:43:10.831Z,21.03
2022-09-10T10:44:10.770Z,21.00
2022-09-10T10:45:10.795Z,20.82
2022-09-10T10:46:12.041Z,20.67
2022-09-10T10:47:10.753Z,20.72
2022-09-10T10:48:10.737Z,20.72
2022-09-10T10:49:10.763Z,20.82
2022-09-10T10:50:10.741Z,20.81
2022-09-10T10:51:10.729Z,20.78
2022-09-10T10:52:10.716Z,20.60
2022-09-10T10:53:10.739Z,20.66
2022-09-10T10:54:10.730Z,20.67
2022-09-10T10:55:10.738Z,20.85
2022-09-10T10:56:10.695Z,20.93
2022-09-10T10:57:10.687Z,20.96
2022-09-10T10:58:10.686Z,20.78
2022-09-10T10:59:10.667Z,20.69
2022-09-10T11:00:10.655Z,20.67
2022-09-10T11:01:10.664Z,20.77
2022-09-10T11:02:10.714Z,20.67
2022-09-10T11:03:10.637Z,20.70
2022-09-10T11:04:10.628Z,20.74
2022-09-10T11:05:10.622Z,20.60
2022-09-10T11:06:10.634Z,20.67
2022-09-10T11:07:10.629Z,20.65
2022-09-10T11:08:10.616Z,20.50
2022-09-10T11:09:10.625Z,20.50
2022-09-10T11:10:10.589Z,20.41
2022-09-10T11:11:10.569Z,20.31
2022-09-10T11:12:10.581Z,20.22
2022-09-10T11:13:10.555Z,20.19
2022-09-10T11:14:10.565Z,20.10
2022-09-10T11:15:10.531Z,19.99
2022-09-10T11:16:10.595Z,19.82
2022-09-10T11:17:10.546Z,19.58
2022-09-10T11:18:10.525Z,19.47
2022-09-10T11:19:10.507Z,19.41
2022-09-10T11:20:27.864Z,19.30
2022-09-10T11:21:11.529Z,19.16
2022-09-10T11:22:10.479Z,19.14
2022-09-10T11:23:10.468Z,19.02
2022-09-10T11:24:13.813Z,18.98
2022-09-10T11:25:11.470Z,18.98
2022-09-10T11:26:10.456Z,19.07
2022-09-10T11:27:10.476Z,19.08
2022-09-10T11:28:10.449Z,19.11
2022-09-10T11:29:10.469Z,19.00
2022-09-10T11:30:10.427Z,19.02
2022-09-10T11:31:10.466Z,18.90
2022-09-10T11:32:10.398Z,19.00
2022-09-10T11:33:10.401Z,18.90
2022-09-10T11:34:10.385Z,18.77
2022-09-10T11:35:10.399Z,18.77
2022-09-10T11:36:11.054Z,18.78
2022-09-10T11:37:10.361Z,18.74
2022-09-10T11:38:10.364Z,18.75
2022-09-10T11:39:10.346Z,18.80
2022-09-10T11:40:10.387Z,18.66
2022-09-10T11:41:10.369Z,18.83
2022-09-10T11:42:10.327Z,18.89
2022-09-10T11:43:10.340Z,19.07
2022-09-10T11:44:10.315Z,19.08
2022-09-10T11:45:10.516Z,19.37
2022-09-10T11:46:10.337Z,19.45
2022-09-10T11:47:10.301Z,19.56
2022-09-10T11:48:10.266Z,19.86
2022-09-10T11:49:10.257Z,19.95
2022-09-10T11:50:10.268Z,20.16
2022-09-10T11:51:10.272Z,20.36
2022-09-10T11:52:10.250Z,20.51
2022-09-10T11:53:10.250Z,20.63
2022-09-10T11:54:10.241Z,20.63
2022-09-10T11:55:10.211Z,20.60
2022-09-10T11:56:10.244Z,20.48
2022-09-10T11:57:10.216Z,20.37
2022-09-10T11:58:10.183Z,20.34
2022-09-10T11:59:10.197Z,20.62
2022-09-10T12:00:10.174Z,20.56
2022-09-10T12:01:10.209Z,20.56
2022-09-10T12:02:10.201Z,20.67
2022-09-10T12:03:10.169Z,20.55
2022-09-10T12:04:10.150Z,20.44
2022-09-10T12:05:10.151Z,20.06
2022-09-10T12:06:10.137Z,20.04
2022-09-10T12:07:10.122Z,19.88
2022-09-10T12:08:10.159Z,19.82
2022-09-10T12:09:10.106Z,19.69
2022-09-10T12:10:14.184Z,19.39
2022-09-10T12:11:10.107Z,19.12
2022-09-10T12:12:10.096Z,19.11
2022-09-10T12:13:10.079Z,19.07
2022-09-10T12:14:10.098Z,19.22
2022-09-10T12:15:10.052Z,19.18
2022-09-10T12:16:10.098Z,19.30
2022-09-10T12:17:10.065Z,19.33
2022-09-10T12:18:10.030Z,19.37
2022-09-10T12:19:10.060Z,19.54
2022-09-10T12:20:10.013Z,19.70
2022-09-10T12:21:10.032Z,19.70
2022-09-10T12:22:09.994Z,19.69
2022-09-10T12:23:09.999Z,19.76
2022-09-10T12:24:09.997Z,19.69
2022-09-10T12:25:09.981Z,19.41
2022-09-10T12:26:09.973Z,19.44
2022-09-10T12:27:09.993Z,19.27
2022-09-10T12:28:09.945Z,19.45
2022-09-10T12:29:09.943Z,19.45
2022-09-10T12:30:09.947Z,19.29
2022-09-10T12:31:09.962Z,19.40
2022-09-10T12:32:09.948Z,19.40
2022-09-10T12:33:09.925Z,19.26
2022-09-10T12:34:09.902Z,19.33
2022-09-10T12:35:09.898Z,19.40
2022-09-10T12:36:09.888Z,19.36
2022-09-10T12:37:09.886Z,19.31
2022-09-10T12:38:09.899Z,19.29
2022-09-10T12:39:09.870Z,19.26
2022-09-10T12:40:12.961Z,19.21
2022-09-10T12:41:09.858Z,19.27
2022-09-10T12:42:09.861Z,19.26
2022-09-10T12:43:09.843Z,19.27
2022-09-10T12:44:09.848Z,19.27
2022-09-10T12:45:09.820Z,19.24
2022-09-10T12:46:09.896Z,19.34
2022-09-10T12:47:09.825Z,19.19
2022-09-10T12:48:09.791Z,19.33
2022-09-10T12:49:09.783Z,19.24
2022-09-10T12:50:09.809Z,19.21
2022-09-10T12:51:09.762Z,19.18
2022-09-10T12:52:09.757Z,19.18
2022-09-10T12:53:09.750Z,19.04